Avenal, California
Current Conditions -  °F | °C
As of 4:56 PM on Friday 24 Oct 2014 (Local Time) from KNLC Reporting Station
Clear Clear  
Wind Chill: 83°   Ceiling: Unl
Heat Index: 83°   Visibility: 7mi
Dew Point: 46°   Wind: 8mph
Humidity: 27%   Direction: 110°ESE
Pressure: 29.86"   Gusts: NA
Location:  36°N, 120.13°W
Report Text: KNLC 242356Z 11007KT 7SM CLR 28/08 A2986 RMK AO2 SLP111 RH/26 T02830078 10294 20200 56015 $
Loading
Personal Weather Stations






























Interactive Weather Map
Tropical Storm Tracking
New forecast layout! Learn more

10-Day Weather Forecast

Advertisements
Track Severe Weather on mobile